Time;durP1;ratioP1;P1;durP2;ratioP2;P2;SDS_P1;SDS_P2;PMS_P1;PMS_P2;Temp;Humidity;BMP_temperature;BMP_pressure;BME280_temperature;BME280_humidity;BME280_pressure;Samples;Min_cycle;Max_cycle;Signal;HPM_P1;HPM_P2
2021/08/13 00:00:16;;;;;;;10.00;6.65;;;;;;;;;;4984941;28;20037;-72
2021/08/13 00:02:42;;;;;;;11.02;7.18;;;;;;;;;;4979582;28;20027;-73
2021/08/13 00:05:09;;;;;;;10.38;7.07;;;;;;;;;;4975430;28;20053;-73
2021/08/13 00:07:35;;;;;;;11.63;7.55;;;;;;;;;;4983077;28;20030;-73
2021/08/13 00:10:02;;;;;;;11.38;7.95;;;;;;;;;;4976492;28;20047;-73
2021/08/13 00:12:28;;;;;;;10.27;7.55;;;;;;;;;;4972351;28;20027;-73
2021/08/13 00:14:57;;;;;;;11.18;7.45;;;;;;;;;;4984488;28;20030;-72
2021/08/13 00:17:22;;;;;;;10.80;6.88;;;;;;;;;;4982850;28;20050;-73
2021/08/13 00:19:48;;;;;;;11.30;7.68;;;;;;;;;;4985508;28;20053;-72
2021/08/13 00:22:14;;;;;;;14.48;7.18;;;;;;;;;;4981523;28;20626;-72
2021/08/13 00:24:40;;;;;;;9.93;7.45;;;;;;;;;;4980323;28;20033;-73
2021/08/13 00:27:06;;;;;;;11.50;7.90;;;;;;;;;;4985096;28;20057;-73
2021/08/13 00:29:32;;;;;;;11.55;6.97;;;;;;;;;;4981628;28;20077;-73
2021/08/13 00:31:58;;;;;;;11.55;6.78;;;;;;;;;;4983804;28;20485;-72
2021/08/13 00:34:24;;;;;;;10.77;7.50;;;;;;;;;;4981798;28;20213;-72
2021/08/13 00:36:50;;;;;;;9.95;6.78;;;;;;;;;;4982411;28;20433;-72
2021/08/13 00:39:15;;;;;;;10.57;7.35;;;;;;;;;;4980293;28;20182;-73
2021/08/13 00:41:41;;;;;;;9.52;6.60;;;;;;;;;;4984824;28;20035;-72
2021/08/13 00:44:07;;;;;;;10.32;7.03;;;;;;;;;;4984020;28;20097;-73
2021/08/13 00:46:33;;;;;;;12.07;7.20;;;;;;;;;;4986188;28;20504;-73
2021/08/13 00:48:59;;;;;;;9.95;6.88;;;;;;;;;;4983874;28;20031;-72
2021/08/13 00:51:25;;;;;;;13.15;6.90;;;;;;;;;;4979493;28;20034;-73
2021/08/13 00:53:51;;;;;;;9.43;6.93;;;;;;;;;;4983253;28;20494;-72
2021/08/13 00:56:17;;;;;;;11.18;7.22;;;;;;;;;;4986038;28;20034;-72
2021/08/13 00:58:43;;;;;;;12.52;7.30;;;;;;;;;;4983447;28;20070;-73
2021/08/13 01:01:11;;;;;;;11.48;6.63;;;;;;;;;;4983861;28;20034;-72
2021/08/13 01:03:37;;;;;;;10.35;7.40;;;;;;;;;;4983645;28;20031;-73
2021/08/13 01:06:03;;;;;;;11.68;7.22;;;;;;;;;;4985176;28;20030;-72
2021/08/13 01:08:29;;;;;;;12.95;8.00;;;;;;;;;;4981778;28;20054;-72
2021/08/13 01:11:09;;;;;;;10.88;7.20;;;;;;;;;;4986713;28;20517;-72
2021/08/13 01:13:37;;;;;;;9.18;7.28;;;;;;;;;;4982820;28;20062;-72
2021/08/13 01:16:04;;;;;;;11.43;6.88;;;;;;;;;;4986530;28;20047;-72
2021/08/13 01:18:32;;;;;;;9.90;7.20;;;;;;;;;;4983580;28;20034;-73
2021/08/13 01:21:15;;;;;;;9.90;7.13;;;;;;;;;;4980086;28;20043;-73
2021/08/13 01:23:43;;;;;;;10.30;6.57;;;;;;;;;;4986125;28;20489;-73
2021/08/13 01:26:10;;;;;;;9.68;6.88;;;;;;;;;;4986214;28;20027;-72
2021/08/13 01:28:48;;;;;;;9.60;7.05;;;;;;;;;;4982815;28;20524;-73
2021/08/13 01:31:19;;;;;;;10.45;6.78;;;;;;;;;;4974285;28;20090;-73
2021/08/13 01:33:45;;;;;;;;;;;;;;;;;;4986621;28;20040;-72
2021/08/13 01:36:12;;;;;;;15.48;6.70;;;;;;;;;;4981437;28;19910;-72
2021/08/13 01:38:38;;;;;;;10.48;7.18;;;;;;;;;;4977209;28;20034;-72
2021/08/13 01:41:06;;;;;;;10.23;6.97;;;;;;;;;;4983131;28;20023;-72
2021/08/13 01:43:32;;;;;;;12.73;7.38;;;;;;;;;;4980272;28;20499;-73
2021/08/13 01:45:59;;;;;;;12.63;7.47;;;;;;;;;;4984490;28;20477;-73
2021/08/13 01:48:29;;;;;;;13.40;7.30;;;;;;;;;;4986291;28;20026;-73
2021/08/13 01:50:55;;;;;;;13.05;7.38;;;;;;;;;;4983640;28;20033;-72
2021/08/13 01:53:22;;;;;;;12.60;7.32;;;;;;;;;;4981579;28;20049;-72
2021/08/13 01:55:48;;;;;;;12.07;7.50;;;;;;;;;;4981167;28;20041;-73
2021/08/13 01:58:15;;;;;;;11.38;7.65;;;;;;;;;;4990203;28;20046;-72
2021/08/13 02:00:42;;;;;;;16.13;7.70;;;;;;;;;;4979433;28;20047;-72
2021/08/13 02:03:08;;;;;;;13.10;7.07;;;;;;;;;;4978769;28;20053;-72
2021/08/13 02:05:35;;;;;;;8.85;6.90;;;;;;;;;;4983080;28;20018;-72
2021/08/13 02:08:06;;;;;;;13.15;7.10;;;;;;;;;;4986390;28;20125;-72
2021/08/13 02:10:33;;;;;;;15.10;7.32;;;;;;;;;;4986880;28;20053;-72
2021/08/13 02:12:59;;;;;;;10.25;7.25;;;;;;;;;;4988625;28;20416;-73
2021/08/13 02:15:25;;;;;;;10.25;6.93;;;;;;;;;;4977776;28;20038;-72
2021/08/13 02:17:54;;;;;;;10.15;6.68;;;;;;;;;;4984261;28;20038;-73
2021/08/13 02:20:20;;;;;;;10.32;6.72;;;;;;;;;;4989982;28;20026;-72
2021/08/13 02:22:46;;;;;;;10.82;6.85;;;;;;;;;;4986822;28;20508;-72
2021/08/13 02:25:12;;;;;;;9.38;7.15;;;;;;;;;;4980450;28;20038;-73
2021/08/13 02:27:39;;;;;;;13.10;7.35;;;;;;;;;;4983561;28;20022;-72
2021/08/13 02:30:06;;;;;;;11.32;7.50;;;;;;;;;;4987146;28;20022;-73
2021/08/13 02:32:33;;;;;;;11.60;6.72;;;;;;;;;;4987399;28;20026;-72
2021/08/13 02:34:58;;;;;;;8.73;6.63;;;;;;;;;;4987265;28;20042;-72
2021/08/13 02:37:31;;;;;;;9.05;6.65;;;;;;;;;;4987927;28;20037;-72
2021/08/13 02:40:05;;;;;;;9.27;6.80;;;;;;;;;;4981070;28;20034;-72
2021/08/13 02:42:52;;;;;;;12.65;7.65;;;;;;;;;;4980995;28;20031;-72
2021/08/13 02:45:22;;;;;;;10.70;6.70;;;;;;;;;;4984606;28;20375;-72
2021/08/13 02:47:48;;;;;;;8.65;6.32;;;;;;;;;;4985384;28;20031;-72
2021/08/13 02:50:16;;;;;;;10.13;6.90;;;;;;;;;;4981635;28;20057;-73
2021/08/13 02:52:53;;;;;;;9.57;6.65;;;;;;;;;;4994799;28;20022;-72
2021/08/13 02:55:21;;;;;;;14.13;7.70;;;;;;;;;;4988930;28;20026;-73
2021/08/13 02:57:49;;;;;;;8.55;6.85;;;;;;;;;;4991351;28;20470;-72
2021/08/13 03:00:15;;;;;;;8.98;6.60;;;;;;;;;;4987018;28;20152;-72
2021/08/13 03:02:42;;;;;;;9.15;6.60;;;;;;;;;;4971553;28;20564;-73
2021/08/13 03:05:09;;;;;;;12.23;7.25;;;;;;;;;;4986554;28;20508;-73
2021/08/13 03:07:35;;;;;;;9.20;6.93;;;;;;;;;;4983913;28;20087;-72
2021/08/13 03:10:02;;;;;;;8.02;6.53;;;;;;;;;;4982387;28;20050;-73
2021/08/13 03:12:28;;;;;;;9.13;6.57;;;;;;;;;;4980191;28;20035;-73
2021/08/13 03:14:54;;;;;;;10.57;7.03;;;;;;;;;;4982672;28;20114;-72
2021/08/13 03:17:21;;;;;;;10.40;7.13;;;;;;;;;;4984860;28;20120;-72
2021/08/13 03:19:46;;;;;;;9.38;6.93;;;;;;;;;;4982606;28;20484;-73
2021/08/13 03:22:13;;;;;;;10.82;7.13;;;;;;;;;;4988637;28;20026;-73
2021/08/13 03:24:39;;;;;;;9.32;6.88;;;;;;;;;;4981473;28;20022;-73
2021/08/13 03:27:05;;;;;;;8.38;6.53;;;;;;;;;;4984603;28;20025;-72
2021/08/13 03:29:31;;;;;;;12.55;7.18;;;;;;;;;;4988103;28;20026;-73
2021/08/13 03:31:58;;;;;;;10.23;7.22;;;;;;;;;;4986732;28;20500;-72
2021/08/13 03:34:24;;;;;;;8.75;6.80;;;;;;;;;;4984415;28;20034;-72
2021/08/13 03:36:50;;;;;;;8.77;6.70;;;;;;;;;;4983984;28;20059;-72
2021/08/13 03:39:16;;;;;;;10.07;7.05;;;;;;;;;;4985512;28;20412;-73
2021/08/13 03:41:42;;;;;;;9.45;7.03;;;;;;;;;;4986790;28;20049;-72
2021/08/13 03:44:08;;;;;;;9.88;6.75;;;;;;;;;;4977462;28;20109;-73
2021/08/13 03:46:34;;;;;;;8.23;6.20;;;;;;;;;;4983067;28;20034;-72
2021/08/13 03:49:00;;;;;;;13.02;6.63;;;;;;;;;;4984051;28;20085;-72
2021/08/13 03:51:25;;;;;;;10.10;7.07;;;;;;;;;;4989400;28;20033;-72
2021/08/13 03:53:51;;;;;;;10.43;7.25;;;;;;;;;;4984316;28;20023;-72
2021/08/13 03:56:17;;;;;;;10.50;7.57;;;;;;;;;;4982631;28;20950;-72
2021/08/13 03:58:43;;;;;;;12.52;6.97;;;;;;;;;;4982963;28;20029;-72
2021/08/13 04:01:09;;;;;;;9.68;7.05;;;;;;;;;;4978258;28;20027;-73
2021/08/13 04:03:35;;;;;;;11.95;7.43;;;;;;;;;;4982724;28;20030;-72
2021/08/13 04:06:02;;;;;;;9.85;6.82;;;;;;;;;;4981965;28;20390;-72
2021/08/13 04:08:28;;;;;;;11.18;7.07;;;;;;;;;;4979630;28;20027;-72
2021/08/13 04:10:53;;;;;;;12.77;7.13;;;;;;;;;;4987055;28;20092;-72
2021/08/13 04:13:19;;;;;;;9.38;6.75;;;;;;;;;;4987811;28;20034;-73
2021/08/13 04:15:45;;;;;;;12.35;7.20;;;;;;;;;;4988919;28;20038;-72
2021/08/13 04:18:11;;;;;;;13.23;6.57;;;;;;;;;;4974304;28;20474;-73
2021/08/13 04:20:38;;;;;;;8.98;6.43;;;;;;;;;;4983449;28;20739;-72
2021/08/13 04:23:04;;;;;;;8.40;6.40;;;;;;;;;;4979577;28;20076;-78
2021/08/13 04:25:30;;;;;;;8.77;6.68;;;;;;;;;;4984468;28;20394;-72
2021/08/13 04:27:56;;;;;;;16.80;6.55;;;;;;;;;;4986753;28;20035;-72
2021/08/13 04:30:22;;;;;;;21.40;7.25;;;;;;;;;;4989135;28;20109;-72
2021/08/13 04:32:48;;;;;;;10.05;7.25;;;;;;;;;;4984481;28;20031;-72
2021/08/13 04:35:14;;;;;;;8.52;6.78;;;;;;;;;;4977187;28;20039;-72
2021/08/13 04:37:40;;;;;;;11.65;7.07;;;;;;;;;;4976270;28;20023;-72
2021/08/13 04:40:06;;;;;;;9.48;7.20;;;;;;;;;;4972842;28;20034;-72
2021/08/13 04:42:32;;;;;;;9.15;6.90;;;;;;;;;;4986054;28;20026;-73
2021/08/13 04:44:58;;;;;;;8.90;7.43;;;;;;;;;;4979271;28;20468;-73
2021/08/13 04:47:24;;;;;;;8.77;7.32;;;;;;;;;;4981167;28;20030;-73
2021/08/13 04:49:50;;;;;;;8.98;6.90;;;;;;;;;;4983106;28;20502;-73
2021/08/13 04:52:18;;;;;;;9.13;6.97;;;;;;;;;;4985897;28;20038;-74
2021/08/13 04:54:47;;;;;;;12.27;6.68;;;;;;;;;;4984626;28;20397;-73
2021/08/13 04:57:13;;;;;;;9.57;6.88;;;;;;;;;;4981535;28;20588;-73
2021/08/13 04:59:39;;;;;;;13.13;7.13;;;;;;;;;;4985302;28;20030;-73
2021/08/13 05:02:05;;;;;;;9.57;6.80;;;;;;;;;;4984028;28;20038;-73
2021/08/13 05:04:31;;;;;;;10.10;7.13;;;;;;;;;;4986556;28;20045;-73
2021/08/13 05:06:57;;;;;;;10.95;7.45;;;;;;;;;;4979474;28;20113;-73
2021/08/13 05:09:23;;;;;;;9.02;6.55;;;;;;;;;;4982696;28;20053;-73
2021/08/13 05:11:49;;;;;;;10.75;7.18;;;;;;;;;;4973393;28;20546;-74
2021/08/13 05:14:15;;;;;;;10.90;7.10;;;;;;;;;;4982621;28;20038;-73
2021/08/13 05:16:40;;;;;;;9.25;6.18;;;;;;;;;;4985664;28;20026;-73
2021/08/13 05:19:06;;;;;;;11.18;7.35;;;;;;;;;;4982857;28;20030;-73
2021/08/13 05:21:39;;;;;;;12.90;7.47;;;;;;;;;;4983443;28;20069;-74
2021/08/13 05:24:05;;;;;;;11.90;7.32;;;;;;;;;;4984895;28;20401;-73
2021/08/13 05:26:31;;;;;;;11.05;7.25;;;;;;;;;;4974184;28;20031;-73
2021/08/13 05:28:57;;;;;;;8.63;6.53;;;;;;;;;;4977274;28;20134;-73
2021/08/13 05:31:23;;;;;;;9.32;6.53;;;;;;;;;;4984332;28;20073;-73
2021/08/13 05:33:49;;;;;;;11.13;7.22;;;;;;;;;;4985929;28;20105;-73
2021/08/13 05:36:17;;;;;;;8.90;6.30;;;;;;;;;;4979970;28;20054;-73
2021/08/13 05:38:43;;;;;;;10.15;6.80;;;;;;;;;;4986244;28;20490;-73
2021/08/13 05:41:09;;;;;;;10.80;7.18;;;;;;;;;;4985767;28;20065;-73
2021/08/13 05:43:35;;;;;;;10.63;7.53;;;;;;;;;;4983803;28;20030;-73
2021/08/13 05:46:01;;;;;;;9.30;7.15;;;;;;;;;;4981837;28;20026;-73
2021/08/13 05:48:26;;;;;;;11.25;7.53;;;;;;;;;;4980568;28;20059;-73
2021/08/13 05:50:52;;;;;;;11.40;7.65;;;;;;;;;;4987468;28;20079;-73
2021/08/13 05:53:18;;;;;;;13.07;7.80;;;;;;;;;;4987360;28;20034;-73
2021/08/13 05:55:44;;;;;;;9.68;7.25;;;;;;;;;;4988334;28;20563;-73
2021/08/13 05:58:10;;;;;;;8.45;6.95;;;;;;;;;;4990906;28;20121;-73
2021/08/13 06:00:36;;;;;;;10.85;7.28;;;;;;;;;;4989968;28;20053;-73
2021/08/13 06:03:03;;;;;;;9.77;7.13;;;;;;;;;;4987194;28;20037;-73
2021/08/13 06:05:29;;;;;;;12.73;7.45;;;;;;;;;;4989106;28;20018;-73
2021/08/13 06:07:55;;;;;;;10.93;7.60;;;;;;;;;;4990425;28;20492;-74
2021/08/13 06:10:21;;;;;;;12.65;7.97;;;;;;;;;;4981233;28;20050;-73
2021/08/13 06:12:47;;;;;;;17.60;8.27;;;;;;;;;;4989056;28;20047;-73
2021/08/13 06:15:14;;;;;;;11.95;7.97;;;;;;;;;;4981202;28;20035;-74
2021/08/13 06:17:41;;;;;;;10.65;7.65;;;;;;;;;;4989960;28;20026;-73
2021/08/13 06:20:08;;;;;;;12.82;7.60;;;;;;;;;;4990017;28;20034;-74
2021/08/13 06:22:34;;;;;;;12.93;8.20;;;;;;;;;;4991549;28;20038;-73
2021/08/13 06:25:00;;;;;;;10.98;7.82;;;;;;;;;;4988245;28;20130;-74
2021/08/13 06:27:26;;;;;;;12.75;8.30;;;;;;;;;;4986318;28;20035;-73
2021/08/13 06:29:52;;;;;;;11.32;7.65;;;;;;;;;;4983823;28;20110;-73
2021/08/13 06:32:19;;;;;;;13.18;8.02;;;;;;;;;;4986137;28;20081;-74
2021/08/13 06:34:45;;;;;;;10.43;7.40;;;;;;;;;;4983503;28;20397;-73
2021/08/13 06:37:11;;;;;;;11.20;7.20;;;;;;;;;;4983938;28;20037;-73
2021/08/13 06:39:37;;;;;;;12.93;8.13;;;;;;;;;;4985363;28;20023;-72
2021/08/13 06:42:03;;;;;;;14.68;8.43;;;;;;;;;;4985197;28;20038;-72
2021/08/13 06:44:29;;;;;;;12.90;7.28;;;;;;;;;;4985950;28;20113;-73
2021/08/13 06:46:55;;;;;;;13.50;7.30;;;;;;;;;;4982422;28;20105;-73
2021/08/13 06:49:21;;;;;;;11.35;6.60;;;;;;;;;;4977427;28;20445;-72
2021/08/13 06:51:47;;;;;;;12.52;7.80;;;;;;;;;;4990331;28;20034;-73
2021/08/13 06:54:13;;;;;;;10.52;6.97;;;;;;;;;;4982070;28;20254;-72
2021/08/13 06:56:38;;;;;;;10.77;7.13;;;;;;;;;;4989101;28;20031;-73
2021/08/13 06:59:04;;;;;;;12.65;7.75;;;;;;;;;;4987060;28;20188;-73
2021/08/13 07:01:30;;;;;;;12.30;7.40;;;;;;;;;;4990336;28;20031;-72
2021/08/13 07:03:56;;;;;;;20.48;6.75;;;;;;;;;;4977924;28;20110;-73
2021/08/13 07:06:22;;;;;;;11.70;6.90;;;;;;;;;;4982295;28;20473;-73
2021/08/13 07:08:48;;;;;;;23.45;6.68;;;;;;;;;;4982210;28;20026;-72
2021/08/13 07:11:14;;;;;;;9.93;6.20;;;;;;;;;;4983848;28;20197;-73
2021/08/13 07:13:40;;;;;;;9.45;6.60;;;;;;;;;;4976871;28;20178;-73
2021/08/13 07:16:06;;;;;;;10.30;7.03;;;;;;;;;;4970801;28;20558;-74
2021/08/13 07:18:32;;;;;;;9.25;6.10;;;;;;;;;;4978662;28;20485;-73
2021/08/13 07:20:58;;;;;;;11.32;5.90;;;;;;;;;;4981738;28;20039;-74
2021/08/13 07:23:24;;;;;;;13.73;6.40;;;;;;;;;;4970676;28;20474;-73
2021/08/13 07:25:50;;;;;;;12.25;6.30;;;;;;;;;;4978101;28;20082;-74
2021/08/13 07:28:15;;;;;;;16.02;6.78;;;;;;;;;;4979058;28;20031;-73
2021/08/13 07:30:41;;;;;;;9.60;6.22;;;;;;;;;;4977694;28;20022;-74
2021/08/13 07:33:07;;;;;;;10.35;6.38;;;;;;;;;;4970354;28;20027;-73
2021/08/13 07:35:33;;;;;;;11.35;6.65;;;;;;;;;;4977407;28;20029;-74
2021/08/13 07:38:02;;;;;;;9.30;6.10;;;;;;;;;;4982296;28;20079;-74
2021/08/13 07:40:28;;;;;;;12.20;6.13;;;;;;;;;;4979895;28;20030;-74
2021/08/13 07:42:55;;;;;;;9.23;6.20;;;;;;;;;;4982558;28;20074;-73
2021/08/13 07:45:21;;;;;;;9.77;6.25;;;;;;;;;;4979234;28;20022;-74
2021/08/13 07:47:47;;;;;;;8.35;6.22;;;;;;;;;;4984237;28;20733;-74
2021/08/13 07:50:13;;;;;;;9.02;5.65;;;;;;;;;;4976381;28;20034;-74
2021/08/13 07:52:39;;;;;;;9.30;5.75;;;;;;;;;;4983940;28;20023;-74
2021/08/13 07:55:05;;;;;;;11.90;5.72;;;;;;;;;;4972113;28;20018;-73
2021/08/13 07:57:31;;;;;;;9.60;5.40;;;;;;;;;;4979805;28;20035;-74
2021/08/13 07:59:57;;;;;;;10.38;6.22;;;;;;;;;;4983943;28;20038;-74
2021/08/13 08:02:23;;;;;;;9.70;5.20;;;;;;;;;;4971234;28;20035;-73
2021/08/13 08:04:49;;;;;;;9.73;5.45;;;;;;;;;;4977007;28;20027;-73
2021/08/13 08:07:15;;;;;;;9.82;5.70;;;;;;;;;;4970044;28;20027;-74
2021/08/13 08:09:41;;;;;;;5.90;4.00;;;;;;;;;;4977448;28;20051;-74
2021/08/13 08:12:07;;;;;;;11.23;5.95;;;;;;;;;;4970175;28;20023;-74
2021/08/13 08:14:33;;;;;;;10.48;5.22;;;;;;;;;;4981905;28;20390;-74
2021/08/13 08:16:59;;;;;;;8.23;5.53;;;;;;;;;;4972535;28;20027;-74
2021/08/13 08:19:25;;;;;;;4.70;4.03;;;;;;;;;;4970386;28;20300;-74
2021/08/13 08:21:51;;;;;;;4.57;3.60;;;;;;;;;;4974080;28;20066;-74
2021/08/13 08:24:17;;;;;;;7.95;5.22;;;;;;;;;;4969765;28;20109;-74
2021/08/13 08:26:43;;;;;;;5.95;4.25;;;;;;;;;;4975171;28;20030;-73
2021/08/13 08:29:09;;;;;;;13.07;5.65;;;;;;;;;;4976151;28;20082;-74
2021/08/13 08:31:35;;;;;;;7.07;4.40;;;;;;;;;;4974200;28;20050;-74
2021/08/13 08:34:01;;;;;;;6.22;4.05;;;;;;;;;;4976116;28;20158;-73
2021/08/13 08:36:33;;;;;;;8.43;5.55;;;;;;;;;;4977688;28;20529;-74
2021/08/13 08:38:59;;;;;;;6.45;4.70;;;;;;;;;;4970556;28;20027;-74
2021/08/13 08:41:26;;;;;;;5.60;4.30;;;;;;;;;;4970214;28;20033;-73
2021/08/13 08:43:52;;;;;;;7.03;4.53;;;;;;;;;;4986722;28;20030;-74
2021/08/13 08:46:19;;;;;;;6.82;4.95;;;;;;;;;;4980526;28;20098;-74
2021/08/13 08:48:49;;;;;;;8.40;4.88;;;;;;;;;;4969944;28;20031;-74
2021/08/13 08:51:15;;;;;;;6.93;4.32;;;;;;;;;;4981806;28;20034;-74
2021/08/13 08:53:42;;;;;;;7.07;4.50;;;;;;;;;;4974442;28;20031;-74
2021/08/13 08:56:08;;;;;;;6.95;4.78;;;;;;;;;;4971635;28;20366;-74
2021/08/13 08:58:35;;;;;;;8.23;4.70;;;;;;;;;;4990830;28;20038;-74
2021/08/13 09:01:01;;;;;;;9.10;4.70;;;;;;;;;;4985410;28;20125;-74
2021/08/13 09:03:27;;;;;;;9.45;5.00;;;;;;;;;;4977363;28;20038;-74
2021/08/13 09:05:53;;;;;;;6.60;4.38;;;;;;;;;;4984620;28;20026;-74
2021/08/13 09:08:19;;;;;;;6.07;4.22;;;;;;;;;;4989414;28;20025;-75
2021/08/13 09:10:45;;;;;;;7.18;5.28;;;;;;;;;;4980024;28;20509;-74
2021/08/13 09:13:12;;;;;;;4.93;3.95;;;;;;;;;;4973433;28;20042;-74
2021/08/13 09:15:39;;;;;;;7.20;4.28;;;;;;;;;;4973468;28;20023;-75
2021/08/13 09:18:18;;;;;;;7.13;5.07;;;;;;;;;;4984233;28;20045;-74
2021/08/13 09:20:49;;;;;;;7.28;4.43;;;;;;;;;;4983445;28;20031;-75
2021/08/13 09:23:27;;;;;;;5.10;3.92;;;;;;;;;;4972885;28;20485;-75
2021/08/13 09:25:57;;;;;;;9.30;4.65;;;;;;;;;;4982016;28;20062;-75
2021/08/13 09:28:42;;;;;;;7.03;4.30;;;;;;;;;;4989414;28;20105;-75
2021/08/13 09:31:12;;;;;;;8.63;4.68;;;;;;;;;;4983977;28;20082;-75
2021/08/13 09:33:38;;;;;;;9.57;4.60;;;;;;;;;;4986961;28;20037;-75
2021/08/13 09:36:04;;;;;;;9.90;4.70;;;;;;;;;;4977672;28;20035;-76
2021/08/13 09:38:30;;;;;;;6.57;4.15;;;;;;;;;;4979529;28;20126;-76
2021/08/13 09:41:05;;;;;;;5.93;4.18;;;;;;;;;;4980632;28;20463;-74
2021/08/13 09:43:31;;;;;;;7.50;4.53;;;;;;;;;;4988753;28;20393;-74
2021/08/13 09:46:09;;;;;;;4.13;3.30;;;;;;;;;;4986449;28;20030;-74
2021/08/13 09:48:35;;;;;;;6.15;3.58;;;;;;;;;;4983207;28;20037;-74
2021/08/13 09:51:01;;;;;;;6.20;4.35;;;;;;;;;;4987909;28;20460;-74
2021/08/13 09:53:27;;;;;;;8.93;4.55;;;;;;;;;;4979373;28;20030;-75
2021/08/13 09:55:53;;;;;;;8.52;4.53;;;;;;;;;;4972887;28;20026;-74
2021/08/13 09:58:26;;;;;;;6.78;4.70;;;;;;;;;;4981294;28;20027;-75
2021/08/13 10:00:54;;;;;;;6.47;4.20;;;;;;;;;;4972425;28;20027;-74
2021/08/13 10:03:20;;;;;;;6.10;3.67;;;;;;;;;;4985148;28;20045;-74
2021/08/13 10:06:01;;;;;;;5.95;4.20;;;;;;;;;;4987961;28;20034;-75
2021/08/13 10:08:39;;;;;;;9.15;4.75;;;;;;;;;;4979615;28;20029;-74
2021/08/13 10:11:11;;;;;;;8.18;4.53;;;;;;;;;;4978840;28;20082;-75
2021/08/13 10:13:42;;;;;;;9.27;4.38;;;;;;;;;;4981367;28;20061;-73
2021/08/13 10:16:08;;;;;;;8.00;4.30;;;;;;;;;;4974163;28;20394;-73
2021/08/13 10:18:36;;;;;;;5.65;3.53;;;;;;;;;;4973530;28;20262;-75
2021/08/13 10:21:02;;;;;;;9.10;4.30;;;;;;;;;;4976397;28;20031;-73
2021/08/13 10:23:28;;;;;;;9.95;3.97;;;;;;;;;;4982261;28;20093;-72
2021/08/13 10:25:55;;;;;;;7.25;3.58;;;;;;;;;;4981562;28;20026;-75
2021/08/13 10:28:21;;;;;;;5.65;4.10;;;;;;;;;;4980552;28;20027;-74
2021/08/13 10:30:47;;;;;;;5.28;3.83;;;;;;;;;;4972417;28;20543;-72
2021/08/13 10:33:14;;;;;;;6.78;4.40;;;;;;;;;;4980776;28;20118;-73
2021/08/13 10:35:43;;;;;;;5.30;3.35;;;;;;;;;;4977343;28;20031;-73
2021/08/13 10:38:09;;;;;;;7.50;3.58;;;;;;;;;;4977051;28;20428;-74
2021/08/13 10:40:35;;;;;;;4.63;3.67;;;;;;;;;;4983318;28;20022;-73
2021/08/13 10:43:02;;;;;;;5.60;3.50;;;;;;;;;;4988453;28;20465;-73
2021/08/13 10:45:31;;;;;;;6.55;4.32;;;;;;;;;;4982618;28;20034;-73
2021/08/13 10:48:01;;;;;;;4.50;3.63;;;;;;;;;;4975014;28;20023;-73
2021/08/13 10:50:27;;;;;;;4.63;3.63;;;;;;;;;;4989728;28;20474;-74
2021/08/13 10:52:53;;;;;;;5.95;3.78;;;;;;;;;;4988158;28;20269;-73
2021/08/13 10:55:38;;;;;;;5.57;4.05;;;;;;;;;;4986081;28;20038;-73
2021/08/13 10:58:15;;;;;;;5.15;3.88;;;;;;;;;;4984973;28;20038;-74
2021/08/13 11:01:02;;;;;;;5.88;3.92;;;;;;;;;;4986227;28;20117;-74
2021/08/13 11:03:28;;;;;;;8.85;4.68;;;;;;;;;;4976514;28;20113;-73
2021/08/13 11:05:55;;;;;;;7.25;4.00;;;;;;;;;;4981787;28;20099;-74
2021/08/13 11:08:21;;;;;;;5.75;4.40;;;;;;;;;;4984717;28;20121;-73
2021/08/13 11:10:50;;;;;;;6.07;3.95;;;;;;;;;;4979738;28;20042;-73
2021/08/13 11:13:20;;;;;;;4.63;3.20;;;;;;;;;;4972484;28;20319;-74
2021/08/13 11:15:46;;;;;;;5.85;4.45;;;;;;;;;;4986157;28;20029;-74
2021/08/13 11:18:29;;;;;;;7.60;4.28;;;;;;;;;;4980289;28;20049;-74
2021/08/13 11:20:55;;;;;;;7.38;4.20;;;;;;;;;;4980791;28;20514;-74
2021/08/13 11:23:21;;;;;;;4.50;3.80;;;;;;;;;;4986784;28;20038;-75
2021/08/13 11:25:51;;;;;;;5.75;3.95;;;;;;;;;;4978319;28;20025;-74
2021/08/13 11:28:27;;;;;;;8.88;4.05;;;;;;;;;;4983199;28;20043;-74
2021/08/13 11:30:54;;;;;;;6.80;3.83;;;;;;;;;;4983155;28;20389;-74
2021/08/13 11:33:29;;;;;;;5.97;4.10;;;;;;;;;;4980824;28;20092;-74
2021/08/13 11:35:58;;;;;;;6.35;4.40;;;;;;;;;;4980566;28;20023;-73
2021/08/13 11:38:42;;;;;;;7.72;4.15;;;;;;;;;;4988884;28;20557;-73
2021/08/13 11:41:23;;;;;;;5.93;4.57;;;;;;;;;;4985629;28;20030;-73
2021/08/13 11:43:50;;;;;;;6.68;4.50;;;;;;;;;;4976881;28;20042;-74
2021/08/13 11:46:29;;;;;;;7.15;5.00;;;;;;;;;;4980052;28;20055;-74
2021/08/13 11:48:56;;;;;;;5.50;4.65;;;;;;;;;;4988540;28;20026;-74
2021/08/13 11:51:24;;;;;;;6.70;4.78;;;;;;;;;;4995447;28;20034;-75
2021/08/13 11:53:49;;;;;;;6.93;5.25;;;;;;;;;;4987190;28;20706;-75
2021/08/13 11:56:29;;;;;;;7.10;4.82;;;;;;;;;;4988661;28;20034;-75
2021/08/13 11:58:58;;;;;;;6.00;4.57;;;;;;;;;;4979612;28;20486;-75
2021/08/13 12:01:24;;;;;;;8.73;5.00;;;;;;;;;;4977005;28;20058;-75
2021/08/13 12:03:52;;;;;;;7.47;5.40;;;;;;;;;;4980697;28;20484;-74
2021/08/13 12:06:19;;;;;;;6.95;4.95;;;;;;;;;;4988543;28;20025;-73
2021/08/13 12:08:46;;;;;;;11.57;5.43;;;;;;;;;;4987228;28;20042;-75
2021/08/13 12:11:12;;;;;;;6.55;5.25;;;;;;;;;;4984759;28;20117;-74
2021/08/13 12:13:39;;;;;;;12.07;5.40;;;;;;;;;;4973561;28;20026;-74
2021/08/13 12:16:05;;;;;;;6.47;4.82;;;;;;;;;;4984927;28;20448;-75
2021/08/13 12:18:32;;;;;;;7.97;5.55;;;;;;;;;;4973574;28;20474;-73
2021/08/13 12:21:03;;;;;;;7.00;5.20;;;;;;;;;;4973301;28;20065;-74
2021/08/13 12:23:29;;;;;;;6.50;5.15;;;;;;;;;;4983532;28;20058;-74
2021/08/13 12:26:00;;;;;;;6.32;5.40;;;;;;;;;;4975588;28;20055;-74
2021/08/13 12:28:29;;;;;;;7.80;5.22;;;;;;;;;;4984349;28;20405;-74
2021/08/13 12:31:03;;;;;;;5.13;4.43;;;;;;;;;;4984354;28;20066;-75
2021/08/13 12:33:29;;;;;;;8.93;5.38;;;;;;;;;;4977770;28;20661;-74
2021/08/13 12:35:54;;;;;;;6.50;5.15;;;;;;;;;;4984278;28;20148;-75
2021/08/13 12:38:30;;;;;;;6.85;5.40;;;;;;;;;;4984835;28;20550;-74
2021/08/13 12:40:57;;;;;;;6.95;5.40;;;;;;;;;;4974131;28;20228;-74
2021/08/13 12:43:23;;;;;;;10.32;5.43;;;;;;;;;;4980258;28;20034;-74
2021/08/13 12:45:56;;;;;;;8.95;5.07;;;;;;;;;;4972196;28;20478;-74
2021/08/13 12:48:22;;;;;;;6.45;4.70;;;;;;;;;;4978255;28;20389;-74
2021/08/13 12:50:58;;;;;;;7.97;5.47;;;;;;;;;;4980865;28;20032;-74
2021/08/13 12:53:37;;;;;;;10.43;5.22;;;;;;;;;;4992148;28;20034;-74
2021/08/13 12:56:03;;;;;;;7.18;5.60;;;;;;;;;;4980914;28;20038;-74
2021/08/13 12:58:31;;;;;;;6.97;4.82;;;;;;;;;;4982963;28;20555;-74
2021/08/13 13:00:57;;;;;;;8.30;5.22;;;;;;;;;;4969584;28;20039;-74
2021/08/13 13:03:23;;;;;;;7.35;5.35;;;;;;;;;;4969126;28;20097;-74
2021/08/13 13:06:02;;;;;;;9.27;5.50;;;;;;;;;;4984639;28;20393;-74
2021/08/13 13:08:28;;;;;;;9.65;5.82;;;;;;;;;;4978260;28;20031;-75
2021/08/13 13:10:54;;;;;;;12.30;5.28;;;;;;;;;;4969322;28;20043;-74
2021/08/13 13:13:21;;;;;;;7.63;5.50;;;;;;;;;;4981346;28;20069;-74
2021/08/13 13:15:47;;;;;;;9.02;5.32;;;;;;;;;;4978340;28;20220;-74
2021/08/13 13:18:24;;;;;;;7.22;5.30;;;;;;;;;;4986453;28;20029;-74
2021/08/13 13:20:50;;;;;;;8.35;5.15;;;;;;;;;;4988744;28;20105;-74
2021/08/13 13:23:16;;;;;;;6.22;4.85;;;;;;;;;;4977785;28;20514;-75
2021/08/13 13:25:43;;;;;;;7.68;5.22;;;;;;;;;;4972941;28;20473;-74
2021/08/13 13:28:10;;;;;;;5.13;4.43;;;;;;;;;;4980203;28;20031;-74
2021/08/13 13:30:39;;;;;;;7.22;5.40;;;;;;;;;;4980716;28;20492;-74
2021/08/13 13:33:07;;;;;;;8.70;5.57;;;;;;;;;;4984142;28;20469;-74
2021/08/13 13:35:37;;;;;;;6.70;5.07;;;;;;;;;;4978862;28;20141;-76
2021/08/13 13:38:04;;;;;;;6.18;4.78;;;;;;;;;;4980196;28;20398;-75
2021/08/13 13:40:31;;;;;;;5.68;4.45;;;;;;;;;;4980889;28;20038;-75
2021/08/13 13:43:01;;;;;;;7.78;4.93;;;;;;;;;;4979653;28;20026;-75
2021/08/13 13:45:29;;;;;;;10.02;5.60;;;;;;;;;;4978302;28;20061;-76
2021/08/13 13:47:56;;;;;;;7.88;5.30;;;;;;;;;;4987387;28;20058;-75
2021/08/13 13:50:23;;;;;;;8.82;5.55;;;;;;;;;;4986956;28;20026;-75
2021/08/13 13:52:49;;;;;;;6.60;5.18;;;;;;;;;;4980687;28;20061;-73
2021/08/13 13:55:15;;;;;;;8.82;5.40;;;;;;;;;;4976961;28;20091;-75
2021/08/13 13:57:42;;;;;;;7.03;5.38;;;;;;;;;;4973087;28;20033;-74
2021/08/13 14:00:09;;;;;;;8.95;5.75;;;;;;;;;;4986509;28;20069;-76
2021/08/13 14:02:39;;;;;;;9.80;5.80;;;;;;;;;;4991626;28;20033;-75
2021/08/13 14:05:07;;;;;;;7.90;5.60;;;;;;;;;;4989430;28;20049;-73
2021/08/13 14:07:37;;;;;;;7.20;5.57;;;;;;;;;;4982200;28;20037;-74
2021/08/13 14:10:05;;;;;;;6.70;6.00;;;;;;;;;;4977846;28;20303;-77
2021/08/13 14:12:31;;;;;;;9.75;6.18;;;;;;;;;;4985296;28;20046;-76
2021/08/13 14:14:57;;;;;;;8.60;6.00;;;;;;;;;;4988640;28;20034;-76
2021/08/13 14:17:23;;;;;;;7.53;6.05;;;;;;;;;;4985022;28;20041;-76
2021/08/13 14:19:49;;;;;;;7.38;5.90;;;;;;;;;;4988010;28;20026;-75
2021/08/13 14:22:15;;;;;;;8.38;5.90;;;;;;;;;;4983481;28;20118;-75
2021/08/13 14:24:41;;;;;;;8.25;6.00;;;;;;;;;;4989220;28;20432;-72
2021/08/13 14:27:07;;;;;;;6.60;5.03;;;;;;;;;;4989029;28;20418;-74
2021/08/13 14:29:33;;;;;;;8.02;4.90;;;;;;;;;;4988244;28;20414;-73
2021/08/13 14:31:59;;;;;;;12.02;6.15;;;;;;;;;;4990728;28;20178;-72
2021/08/13 14:34:25;;;;;;;6.10;5.13;;;;;;;;;;4975929;28;20030;-73
2021/08/13 14:36:51;;;;;;;7.25;4.90;;;;;;;;;;4988440;28;20093;-74
2021/08/13 14:39:17;;;;;;;8.82;5.28;;;;;;;;;;4986344;28;20392;-72